Cooper Island, British Virgin Islands
Current Conditions -  °F | °C
As of 6:50 AM on Friday 24 Oct 2014 (Local Time) from TUPJ Reporting Station
Scattered Clouds Scattered Clouds  
Wind Chill: 82°   Ceiling: Unl
Heat Index: 91°   Visibility: 6mi
Dew Point: 77°   Wind: 7mph
Humidity: 84%   Direction: 130°SE
Pressure: 29.94"   Gusts: NA
Location:  18.38°N, 64.51°W
Report Text: TUPJ 241050Z 13006KT 9999 SCT018 28/25 Q1014 RMK A2994
Loading
Personal Weather Stations






























Interactive Weather Map
Tropical Storm Tracking
New forecast layout! Learn more

10-Day Weather Forecast

Advertisements
Track Severe Weather on mobile